Time;durP1;ratioP1;P1;durP2;ratioP2;P2;SDS_P1;SDS_P2;PMS_P1;PMS_P2;Temp;Humidity;BMP_temperature;BMP_pressure;BME280_temperature;BME280_humidity;BME280_pressure;Samples;Min_cycle;Max_cycle;Signal;HPM_P1;HPM_P2
2023/08/14 00:01:51;;;;;;;1.85;0.90;;;19.70;92.00;;;;;;6126460;23;20006;-86
2023/08/14 00:04:16;;;;;;;3.95;1.50;;;19.70;92.00;;;;;;6128083;23;20036;-87
2023/08/14 00:06:42;;;;;;;2.67;1.20;;;19.70;92.00;;;;;;6127344;23;20316;-87
2023/08/14 00:09:07;;;;;;;2.15;1.20;;;19.70;92.00;;;;;;6125395;23;20012;-87
2023/08/14 00:11:33;;;;;;;3.40;1.30;;;19.70;92.20;;;;;;6125316;23;19998;-87
2023/08/14 00:13:58;;;;;;;2.60;1.27;;;19.80;91.90;;;;;;6125337;23;20002;-87
2023/08/14 00:16:25;;;;;;;2.80;1.20;;;19.80;91.90;;;;;;6125336;23;20001;-87
2023/08/14 00:18:50;;;;;;;1.77;1.00;;;19.80;91.90;;;;;;6125197;23;20006;-88
2023/08/14 00:21:16;;;;;;;2.40;1.30;;;19.80;91.80;;;;;;6126663;23;20320;-87
2023/08/14 00:23:42;;;;;;;2.42;1.20;;;19.90;91.80;;;;;;6126018;23;19994;-86
2023/08/14 00:26:09;;;;;;;2.58;1.20;;;19.80;91.70;;;;;;6125008;23;20021;-86
2023/08/14 00:28:35;;;;;;;2.25;1.30;;;19.90;91.70;;;;;;6124876;23;20002;-87
2023/08/14 00:31:00;;;;;;;2.63;1.40;;;19.90;91.70;;;;;;6125354;23;20059;-87
2023/08/14 00:33:26;;;;;;;3.00;1.20;;;19.90;91.70;;;;;;6124626;23;20148;-83
2023/08/14 00:35:51;;;;;;;2.47;1.15;;;19.90;91.70;;;;;;6124733;23;20098;-86
2023/08/14 00:38:17;;;;;;;2.35;1.15;;;19.90;91.70;;;;;;6124599;23;19994;-86
2023/08/14 00:40:43;;;;;;;3.13;1.27;;;19.90;91.70;;;;;;6126302;23;20005;-86
2023/08/14 00:43:08;;;;;;;2.75;1.20;;;19.90;91.70;;;;;;6124470;23;19994;-87
2023/08/14 00:45:34;;;;;;;2.72;1.20;;;19.80;91.70;;;;;;6126192;23;19990;-86
2023/08/14 00:48:00;;;;;;;2.33;1.40;;;19.80;91.70;;;;;;6124649;23;20002;-86
2023/08/14 00:50:25;;;;;;;2.58;1.20;;;19.80;91.80;;;;;;6124104;23;20373;-87
2023/08/14 00:52:55;;;;;;;2.40;1.30;;;19.80;91.90;;;;;;6125701;23;20005;-87
2023/08/14 00:55:22;;;;;;;2.63;1.20;;;19.80;91.90;;;;;;6123987;23;20064;-87
2023/08/14 00:57:50;;;;;;;2.95;1.30;;;19.80;91.90;;;;;;6124530;23;20393;-86
2023/08/14 01:00:16;;;;;;;1.95;1.10;;;19.80;91.90;;;;;;6124250;23;20005;-86
2023/08/14 01:02:46;;;;;;;2.03;1.20;;;19.80;91.90;;;;;;6125671;23;20055;-86
2023/08/14 01:05:11;;;;;;;2.70;1.30;;;19.70;91.90;;;;;;6124110;23;19997;-86
2023/08/14 01:07:37;;;;;;;1.88;1.20;;;19.70;91.90;;;;;;6124305;23;20060;-87
2023/08/14 01:10:04;;;;;;;2.38;1.20;;;19.70;91.90;;;;;;6126729;23;20029;-87
2023/08/14 01:12:37;;;;;;;1.65;1.02;;;19.70;92.00;;;;;;6137567;23;20002;-88
2023/08/14 01:15:08;;;;;;;2.55;1.20;;;19.70;92.00;;;;;;6134835;23;19998;-89
2023/08/14 01:17:35;;;;;;;2.92;1.40;;;19.70;92.00;;;;;;6134886;23;20309;-88
2023/08/14 01:20:03;;;;;;;3.00;1.20;;;19.70;92.00;;;;;;6134855;23;20006;-88
2023/08/14 01:22:35;;;;;;;2.90;1.38;;;19.70;92.00;;;;;;6134934;23;19998;-87
2023/08/14 01:25:19;;;;;;;;;;;19.70;92.00;;;;;;6134568;23;20036;-88
2023/08/14 01:27:45;;;;;;;3.30;1.20;;;19.70;92.00;;;;;;6136313;23;19903;-88
2023/08/14 01:30:11;;;;;;;2.90;1.38;;;19.70;92.00;;;;;;6132969;23;20002;-87
2023/08/14 01:32:36;;;;;;;2.53;1.38;;;19.70;92.00;;;;;;6135367;23;20013;-88
2023/08/14 01:35:02;;;;;;;3.63;1.80;;;19.70;92.00;;;;;;6136152;23;20002;-87
2023/08/14 01:38:24;;;;;;;3.20;1.50;;;19.70;92.00;;;;;;6135044;23;20477;-88
2023/08/14 01:41:08;;;;;;;2.83;1.30;;;19.70;92.00;;;;;;6046034;23;20030;-88
2023/08/14 01:43:38;;;;;;;2.58;1.40;;;19.70;92.00;;;;;;6045742;23;19999;-88
2023/08/14 01:46:07;;;;;;;2.22;1.10;;;19.70;91.90;;;;;;6088950;23;20089;-88
2023/08/14 01:48:34;;;;;;;2.88;1.40;;;19.70;91.90;;;;;;6135895;23;19994;-88
2023/08/14 01:51:00;;;;;;;3.83;1.50;;;19.80;91.90;;;;;;6133865;23;20018;-87
2023/08/14 01:53:26;;;;;;;2.65;1.33;;;19.80;91.80;;;;;;6131914;23;20001;-85
2023/08/14 01:55:52;;;;;;;2.88;1.23;;;19.70;91.80;;;;;;6131809;23;20029;-87
2023/08/14 01:58:17;;;;;;;2.53;1.30;;;19.80;91.70;;;;;;6132926;23;19998;-87
2023/08/14 02:00:43;;;;;;;3.05;1.45;;;19.90;91.70;;;;;;6132101;23;20325;-88
2023/08/14 02:03:08;;;;;;;2.25;1.30;;;19.80;91.70;;;;;;6131349;23;20321;-87
2023/08/14 02:05:34;;;;;;;2.88;1.30;;;19.90;91.70;;;;;;6130390;23;20085;-87
2023/08/14 02:07:59;;;;;;;3.47;1.35;;;19.80;91.60;;;;;;6132493;23;20004;-89
2023/08/14 02:10:24;;;;;;;2.47;1.40;;;19.90;91.60;;;;;;6130301;23;20425;-87
2023/08/14 02:12:50;;;;;;;2.65;1.42;;;19.90;91.70;;;;;;6132681;23;20054;-88
2023/08/14 02:15:16;;;;;;;1.88;1.20;;;19.80;91.70;;;;;;6129348;23;20141;-87
2023/08/14 02:17:42;;;;;;;2.30;1.23;;;19.80;91.70;;;;;;6130099;23;20002;-87
2023/08/14 02:20:09;;;;;;;2.28;1.20;;;19.80;91.80;;;;;;6127209;23;20010;-86
2023/08/14 02:22:34;;;;;;;2.30;1.10;;;19.80;91.80;;;;;;6128696;23;19998;-87
2023/08/14 02:25:00;;;;;;;2.25;1.20;;;19.80;91.90;;;;;;6128432;23;20005;-87
2023/08/14 02:27:25;;;;;;;2.08;1.30;;;19.70;91.90;;;;;;6129315;23;20474;-88
2023/08/14 02:29:51;;;;;;;2.08;1.20;;;19.70;91.90;;;;;;6128764;23;20012;-87
2023/08/14 02:32:16;;;;;;;2.88;1.50;;;19.70;91.90;;;;;;6128518;23;20016;-86
2023/08/14 02:34:46;;;;;;;2.10;1.20;;;19.70;92.10;;;;;;6131454;23;20009;-87
2023/08/14 02:37:13;;;;;;;2.65;1.40;;;19.70;91.90;;;;;;6127998;23;20410;-87
2023/08/14 02:39:38;;;;;;;1.85;1.20;;;19.70;91.90;;;;;;6128789;23;20006;-88
2023/08/14 02:42:04;;;;;;;2.38;1.30;;;19.70;91.90;;;;;;6128356;23;20441;-87
2023/08/14 02:44:30;;;;;;;2.42;1.30;;;19.70;91.90;;;;;;6128761;23;20001;-86
2023/08/14 02:46:56;;;;;;;2.55;1.25;;;19.70;91.90;;;;;;6128606;23;20032;-86
2023/08/14 02:49:22;;;;;;;2.30;1.40;;;19.70;91.90;;;;;;6128157;23;20029;-87
2023/08/14 02:51:48;;;;;;;1.48;1.10;;;19.70;92.00;;;;;;6127836;23;20468;-87
2023/08/14 02:54:13;;;;;;;2.28;1.20;;;19.70;92.00;;;;;;6127142;23;20006;-87
2023/08/14 02:56:39;;;;;;;2.63;1.40;;;19.70;92.00;;;;;;6127632;23;20006;-87
2023/08/14 02:59:04;;;;;;;2.60;1.38;;;19.70;92.00;;;;;;6127501;23;20033;-87
2023/08/14 03:01:30;;;;;;;2.47;1.30;;;19.70;91.90;;;;;;6127400;23;20029;-87
2023/08/14 03:03:55;;;;;;;4.15;1.80;;;19.70;92.00;;;;;;6126837;23;20005;-86
2023/08/14 03:06:21;;;;;;;2.60;1.40;;;19.70;91.90;;;;;;6129000;23;19998;-87
2023/08/14 03:08:48;;;;;;;2.50;1.30;;;19.70;91.90;;;;;;6126863;23;20002;-86
2023/08/14 03:11:13;;;;;;;3.92;1.20;;;19.70;91.90;;;;;;6126732;23;20324;-87
2023/08/14 03:13:38;;;;;;;2.10;1.13;;;19.70;91.90;;;;;;6126964;23;20030;-86
2023/08/14 03:16:04;;;;;;;2.75;1.50;;;19.70;91.90;;;;;;6126749;23;20076;-88
2023/08/14 03:18:29;;;;;;;2.30;1.20;;;19.70;91.90;;;;;;6127995;23;19998;-86
2023/08/14 03:20:55;;;;;;;3.15;1.55;;;19.80;91.90;;;;;;6126141;23;20002;-86
2023/08/14 03:23:20;;;;;;;3.15;1.40;;;19.70;91.90;;;;;;6127316;23;20341;-89
2023/08/14 03:25:46;;;;;;;1.95;1.30;;;19.80;91.90;;;;;;6122379;23;20002;-87
2023/08/14 03:28:11;;;;;;;2.80;1.42;;;19.80;91.80;;;;;;6120429;23;20013;-88
2023/08/14 03:30:43;;;;;;;3.10;1.40;;;19.80;91.70;;;;;;6122781;23;20009;-87
2023/08/14 03:33:12;;;;;;;2.03;1.20;;;19.80;91.70;;;;;;6122471;23;20014;-86
2023/08/14 03:35:37;;;;;;;3.92;1.60;;;19.80;91.70;;;;;;6122189;23;20041;-85
2023/08/14 03:38:03;;;;;;;2.53;1.30;;;19.90;91.70;;;;;;6122925;23;20013;-88
2023/08/14 03:40:30;;;;;;;2.33;1.35;;;19.80;91.60;;;;;;6122268;23;20014;-86
2023/08/14 04:03:29;;;;;;;2.63;1.40;;;19.70;91.90;;;;;;6133837;23;20069;-82
2023/08/14 04:13:20;;;;;;;2.70;1.20;;;19.90;92.00;;;;;;5953860;24;20445;-85
2023/08/14 04:16:20;;;;;;;;;;;;;;;;;;;;;
2023/08/14 04:23:18;;;;;;;;;;;;;;;;;;;;;
2023/08/14 04:25:47;;;;;;;2.22;1.33;;;19.70;91.90;;;;;;5986899;23;20079;-85
2023/08/14 04:28:30;;;;;;;2.08;1.33;;;20.10;92.00;;;;;;6135400;23;20058;-86
2023/08/14 04:31:05;;;;;;;2.20;1.27;;;19.70;91.90;;;;;;6111651;23;20089;-87
2023/08/14 04:34:32;;;;;;;3.13;1.45;;;21.40;92.40;;;;;;6107974;23;19998;-86
2023/08/14 04:57:00;;;;;;;2.20;1.40;;;19.70;91.80;;;;;;6150486;23;20040;-85
2023/08/14 05:03:13;;;;;;;2.55;1.30;;;19.80;91.70;;;;;;6157018;23;20052;-84
2023/08/14 05:05:38;;;;;;;2.92;1.48;;;19.80;91.60;;;;;;6162214;23;20005;-84
2023/08/14 05:08:04;;;;;;;2.28;1.40;;;20.30;91.70;;;;;;6160642;23;19997;-83
2023/08/14 05:10:29;;;;;;;2.33;1.33;;;19.80;91.60;;;;;;6162541;23;20008;-84
2023/08/14 05:12:55;;;;;;;2.28;1.38;;;19.80;91.50;;;;;;6160937;23;20084;-83
2023/08/14 05:15:21;;;;;;;2.50;1.40;;;19.80;91.60;;;;;;6158686;23;20389;-86
2023/08/14 05:17:46;;;;;;;2.38;1.50;;;19.80;91.60;;;;;;6157870;23;20016;-84
2023/08/14 05:20:12;;;;;;;3.50;1.65;;;19.70;91.60;;;;;;6158233;23;20074;-84
2023/08/14 05:22:38;;;;;;;2.38;1.35;;;19.80;91.60;;;;;;6158469;23;20479;-85
2023/08/14 05:25:05;;;;;;;3.03;1.40;;;19.80;91.70;;;;;;6157331;23;20003;-86
2023/08/14 05:27:36;;;;;;;2.83;1.50;;;19.80;91.70;;;;;;6158167;23;20045;-84
2023/08/14 05:30:02;;;;;;;3.30;1.55;;;19.80;91.70;;;;;;6158369;23;20419;-84
2023/08/14 05:32:28;;;;;;;3.00;1.40;;;19.70;91.70;;;;;;6159233;23;20013;-84
2023/08/14 05:34:53;;;;;;;2.83;1.40;;;19.80;91.70;;;;;;6159438;23;19993;-83
2023/08/14 05:37:19;;;;;;;2.83;1.50;;;19.70;91.70;;;;;;6157561;23;20002;-84
2023/08/14 05:39:44;;;;;;;3.30;1.58;;;19.80;91.70;;;;;;6157657;23;20009;-84
2023/08/14 05:42:10;;;;;;;2.90;1.50;;;19.70;91.70;;;;;;6157337;23;20080;-84
2023/08/14 05:44:35;;;;;;;2.92;1.52;;;19.80;91.70;;;;;;6157374;23;20073;-84
2023/08/14 05:47:01;;;;;;;2.78;1.60;;;19.80;91.80;;;;;;6158586;23;20451;-84
2023/08/14 05:49:27;;;;;;;2.92;1.60;;;19.70;91.70;;;;;;6156620;23;20005;-84
2023/08/14 05:51:52;;;;;;;3.47;1.48;;;19.70;91.70;;;;;;6156526;23;19998;-84
2023/08/14 05:54:18;;;;;;;4.60;1.50;;;19.80;91.70;;;;;;6156027;23;20005;-84
2023/08/14 05:56:45;;;;;;;5.15;1.65;;;19.80;91.70;;;;;;6157513;23;20056;-84
2023/08/14 05:59:10;;;;;;;2.72;1.50;;;19.80;91.70;;;;;;6157831;23;20373;-83
2023/08/14 06:01:36;;;;;;;2.42;1.35;;;19.70;91.60;;;;;;6160251;23;20008;-84
2023/08/14 06:04:02;;;;;;;3.65;1.30;;;19.70;91.60;;;;;;6159614;23;20312;-84
2023/08/14 06:06:27;;;;;;;3.20;1.50;;;19.80;91.60;;;;;;6159194;23;20420;-84
2023/08/14 06:08:53;;;;;;;2.78;1.60;;;19.80;91.50;;;;;;6157728;23;20417;-83
2023/08/14 06:11:18;;;;;;;2.97;1.42;;;19.80;91.50;;;;;;6157116;23;20004;-84
2023/08/14 06:13:44;;;;;;;3.70;1.80;;;19.90;91.60;;;;;;6159068;23;20198;-84
2023/08/14 06:16:10;;;;;;;2.50;1.40;;;19.90;91.50;;;;;;6156540;23;20025;-84
2023/08/14 06:18:36;;;;;;;3.60;1.60;;;19.90;91.50;;;;;;6158452;23;20298;-84
2023/08/14 06:21:01;;;;;;;6.00;1.67;;;19.90;91.50;;;;;;6156958;23;20003;-84
2023/08/14 06:23:27;;;;;;;2.83;1.30;;;19.90;91.40;;;;;;6156890;23;19993;-83
2023/08/14 06:25:52;;;;;;;2.85;1.42;;;19.90;91.30;;;;;;6156242;23;20367;-84
2023/08/14 06:28:18;;;;;;;2.78;1.38;;;20.00;91.20;;;;;;6157985;23;20010;-84
2023/08/14 06:30:43;;;;;;;2.95;1.40;;;20.00;91.20;;;;;;6156304;23;20012;-83
2023/08/14 06:33:09;;;;;;;2.45;1.40;;;20.00;91.10;;;;;;6155369;23;20008;-84
2023/08/14 06:35:34;;;;;;;3.30;1.73;;;20.00;91.10;;;;;;6157937;23;20323;-84
2023/08/14 06:38:00;;;;;;;2.78;1.48;;;20.00;91.10;;;;;;6155978;23;20005;-83
2023/08/14 06:40:25;;;;;;;3.00;1.52;;;20.10;91.00;;;;;;6157808;23;20077;-84
2023/08/14 06:42:52;;;;;;;2.83;1.40;;;20.10;91.00;;;;;;6157136;23;20019;-83
2023/08/14 06:45:17;;;;;;;3.00;1.50;;;20.10;90.90;;;;;;6155611;23;20001;-84
2023/08/14 06:47:44;;;;;;;3.15;1.40;;;20.10;90.90;;;;;;6155709;23;20409;-83
2023/08/14 06:50:11;;;;;;;3.55;1.50;;;20.10;91.00;;;;;;6155681;23;20006;-83
2023/08/14 06:52:37;;;;;;;2.10;1.35;;;20.10;91.00;;;;;;6155410;23;20009;-84
2023/08/14 06:55:03;;;;;;;2.40;1.52;;;20.10;91.00;;;;;;6156505;23;20498;-84
2023/08/14 06:57:28;;;;;;;3.28;1.70;;;20.10;90.90;;;;;;6155206;23;20005;-84
2023/08/14 06:59:53;;;;;;;3.10;1.60;;;20.10;91.00;;;;;;6155604;23;20321;-84
2023/08/14 07:02:19;;;;;;;3.00;1.75;;;20.10;91.00;;;;;;6154919;23;19997;-83
2023/08/14 07:04:44;;;;;;;2.83;1.50;;;20.10;91.00;;;;;;6155250;23;20001;-83
2023/08/14 07:07:10;;;;;;;3.45;1.73;;;20.10;91.00;;;;;;6155250;23;20009;-83
2023/08/14 07:09:35;;;;;;;3.13;1.55;;;20.00;91.00;;;;;;6155115;23;20001;-84
2023/08/14 07:12:01;;;;;;;3.63;2.00;;;20.10;91.00;;;;;;6154824;23;20009;-84
2023/08/14 07:14:26;;;;;;;2.80;1.60;;;20.00;91.00;;;;;;6156038;23;20016;-84
2023/08/14 07:16:52;;;;;;;3.03;1.83;;;20.10;91.00;;;;;;6154732;23;20002;-83
2023/08/14 07:19:17;;;;;;;4.53;2.03;;;20.10;91.00;;;;;;6154651;23;20005;-83
2023/08/14 07:21:44;;;;;;;3.20;1.60;;;20.00;91.00;;;;;;6154613;23;20329;-83
2023/08/14 07:24:12;;;;;;;2.83;1.45;;;20.10;91.00;;;;;;6154625;23;20052;-84
2023/08/14 07:26:38;;;;;;;2.60;1.50;;;20.10;91.00;;;;;;6154618;23;20001;-84
2023/08/14 07:29:03;;;;;;;2.38;1.30;;;20.10;90.90;;;;;;6154598;23;20092;-83
2023/08/14 07:31:29;;;;;;;3.10;1.70;;;20.20;91.00;;;;;;6156047;23;20477;-83
2023/08/14 07:33:55;;;;;;;2.47;1.38;;;20.20;90.90;;;;;;6154040;23;20495;-83
2023/08/14 07:36:20;;;;;;;1.77;1.25;;;20.10;90.90;;;;;;6154615;23;19998;-84
2023/08/14 07:38:46;;;;;;;4.13;1.80;;;20.20;91.20;;;;;;6154453;23;20001;-83
2023/08/14 07:41:12;;;;;;;2.78;1.50;;;20.20;91.00;;;;;;6156040;23;20006;-83
2023/08/14 07:43:37;;;;;;;2.55;1.40;;;20.20;90.90;;;;;;6154174;23;20444;-82
2023/08/14 07:46:02;;;;;;;2.15;1.38;;;20.20;91.10;;;;;;6155961;23;20018;-84
2023/08/14 07:48:28;;;;;;;3.30;1.70;;;20.20;90.90;;;;;;6155953;23;20416;-83
2023/08/14 07:50:54;;;;;;;2.40;1.50;;;20.20;90.90;;;;;;6154010;23;20085;-84
2023/08/14 07:53:20;;;;;;;3.35;1.70;;;20.30;90.90;;;;;;6161099;23;20001;-85
2023/08/14 07:55:48;;;;;;;3.05;1.30;;;20.30;90.80;;;;;;6160667;23;20070;-85
2023/08/14 07:58:14;;;;;;;2.13;1.35;;;20.30;90.70;;;;;;6160779;23;20052;-84
2023/08/14 08:00:40;;;;;;;3.58;1.58;;;20.40;90.70;;;;;;6161344;23;20001;-84
2023/08/14 08:03:05;;;;;;;2.65;1.55;;;20.40;90.60;;;;;;6161935;23;19997;-84
2023/08/14 08:05:31;;;;;;;1.98;1.35;;;20.40;90.50;;;;;;6160396;23;19990;-84
2023/08/14 08:07:57;;;;;;;2.45;1.45;;;20.40;90.40;;;;;;6161433;23;20029;-84
2023/08/14 08:10:22;;;;;;;2.90;1.60;;;20.50;90.40;;;;;;6160859;23;20020;-84
2023/08/14 08:12:48;;;;;;;3.45;1.60;;;20.50;90.40;;;;;;6161009;23;20065;-84
2023/08/14 08:15:13;;;;;;;2.75;1.50;;;20.50;90.40;;;;;;6160569;23;20028;-84
2023/08/14 08:17:39;;;;;;;2.25;1.30;;;20.50;90.30;;;;;;6161018;23;20030;-84
2023/08/14 08:20:05;;;;;;;2.17;1.40;;;20.50;90.30;;;;;;6160205;23;20433;-84
2023/08/14 08:22:31;;;;;;;2.25;1.38;;;20.50;90.30;;;;;;6160793;23;19993;-84
2023/08/14 08:24:57;;;;;;;3.03;1.65;;;20.50;90.40;;;;;;6160607;23;20005;-85
2023/08/14 08:27:22;;;;;;;2.60;1.50;;;20.40;90.40;;;;;;6160151;23;20000;-84
2023/08/14 08:29:48;;;;;;;3.08;1.50;;;20.40;90.50;;;;;;6160336;23;20001;-84
2023/08/14 08:32:13;;;;;;;2.72;1.50;;;20.40;90.50;;;;;;6159304;23;20009;-84
2023/08/14 08:34:39;;;;;;;2.25;1.40;;;20.40;90.60;;;;;;6160961;23;20008;-83
2023/08/14 08:37:05;;;;;;;2.70;1.40;;;20.30;90.90;;;;;;6159468;23;19997;-84
2023/08/14 08:39:31;;;;;;;2.80;1.38;;;20.30;90.80;;;;;;6159383;23;19997;-84
2023/08/14 08:41:57;;;;;;;2.22;1.40;;;20.30;90.80;;;;;;6160818;23;20001;-84
2023/08/14 08:44:25;;;;;;;2.42;1.40;;;20.30;90.90;;;;;;6159067;23;20001;-84
2023/08/14 08:46:53;;;;;;;3.30;1.63;;;20.30;90.90;;;;;;6159234;23;20490;-84
2023/08/14 08:49:18;;;;;;;2.78;1.48;;;20.30;90.90;;;;;;6159000;23;20009;-84
2023/08/14 08:51:45;;;;;;;2.13;1.50;;;20.30;90.90;;;;;;6160436;23;20001;-84
2023/08/14 08:54:12;;;;;;;2.50;1.50;;;20.30;91.00;;;;;;6158480;23;20024;-84
2023/08/14 08:56:38;;;;;;;2.17;1.42;;;20.20;91.00;;;;;;6158212;23;20433;-84
2023/08/14 08:59:04;;;;;;;2.25;1.30;;;20.20;91.00;;;;;;6158057;23;20009;-84
2023/08/14 09:01:30;;;;;;;2.20;1.45;;;20.20;91.00;;;;;;6158646;23;20025;-83
2023/08/14 09:03:55;;;;;;;2.63;1.52;;;20.20;91.00;;;;;;6157025;23;19998;-84
2023/08/14 09:06:21;;;;;;;2.47;1.50;;;20.30;91.00;;;;;;6157735;23;20004;-83
2023/08/14 09:08:47;;;;;;;2.70;1.58;;;20.20;91.00;;;;;;6157361;23;20009;-84
2023/08/14 09:11:12;;;;;;;3.35;1.80;;;20.20;90.90;;;;;;6156546;23;20001;-84
2023/08/14 09:13:38;;;;;;;2.85;1.50;;;20.30;91.00;;;;;;6156303;23;20001;-84
2023/08/14 09:16:03;;;;;;;2.38;1.50;;;20.30;90.90;;;;;;6159004;23;20205;-84
2023/08/14 09:18:32;;;;;;;1.95;1.38;;;20.30;90.80;;;;;;6156834;23;20001;-84
2023/08/14 09:20:58;;;;;;;2.22;1.30;;;20.40;90.80;;;;;;6158359;23;20085;-84
2023/08/14 09:23:24;;;;;;;2.65;1.33;;;20.40;90.70;;;;;;6156257;23;20028;-83
2023/08/14 09:25:50;;;;;;;2.78;1.50;;;20.40;90.70;;;;;;6155952;23;19997;-84
2023/08/14 09:28:17;;;;;;;2.67;1.40;;;20.50;90.60;;;;;;6156073;23;20048;-84
2023/08/14 09:30:43;;;;;;;2.67;1.58;;;20.50;90.60;;;;;;6156624;23;20079;-83
2023/08/14 09:33:11;;;;;;;2.38;1.33;;;20.50;90.50;;;;;;6157481;23;20002;-84
2023/08/14 09:35:38;;;;;;;1.85;1.20;;;20.50;90.50;;;;;;6157181;23;20090;-83
2023/08/14 09:38:04;;;;;;;2.58;1.60;;;20.60;90.40;;;;;;6158920;23;20013;-84
2023/08/14 09:40:32;;;;;;;2.60;1.50;;;20.70;90.40;;;;;;6158986;23;20002;-84
2023/08/14 09:42:57;;;;;;;2.28;1.38;;;20.60;90.30;;;;;;6158380;23;20032;-83
2023/08/14 09:45:25;;;;;;;2.55;1.40;;;20.70;90.20;;;;;;6157226;23;20001;-84
2023/08/14 09:47:56;;;;;;;2.38;1.30;;;20.70;90.10;;;;;;6156929;23;19997;-83
2023/08/14 09:50:27;;;;;;;3.97;1.60;;;20.80;90.10;;;;;;6158401;23;20009;-84
2023/08/14 09:52:56;;;;;;;1.80;1.25;;;20.80;90.10;;;;;;6158488;23;20380;-84
2023/08/14 09:55:23;;;;;;;2.03;1.40;;;20.80;90.10;;;;;;6156543;23;20002;-84
2023/08/14 09:57:50;;;;;;;2.33;1.40;;;20.80;90.10;;;;;;6156766;23;20005;-83
2023/08/14 10:00:16;;;;;;;2.53;1.35;;;20.70;90.10;;;;;;6156849;23;20005;-84
2023/08/14 10:02:44;;;;;;;2.47;1.52;;;20.80;90.10;;;;;;6156559;23;20076;-84
2023/08/14 10:05:10;;;;;;;2.13;1.30;;;20.80;90.10;;;;;;6156024;23;20440;-84
2023/08/14 10:07:36;;;;;;;2.13;1.40;;;20.80;90.10;;;;;;6156401;23;20450;-84
2023/08/14 10:10:03;;;;;;;2.20;1.30;;;20.80;90.10;;;;;;6155583;23;20033;-84
2023/08/14 10:12:33;;;;;;;2.00;1.20;;;20.80;90.10;;;;;;6155937;23;20005;-84
2023/08/14 10:15:10;;;;;;;2.97;1.63;;;20.80;90.10;;;;;;6155829;23;20016;-84
2023/08/14 10:17:55;;;;;;;2.10;1.33;;;20.90;90.10;;;;;;6155576;23;20013;-84
2023/08/14 10:20:22;;;;;;;1.88;1.33;;;20.90;90.10;;;;;;6155856;23;20005;-83
2023/08/14 10:22:49;;;;;;;3.15;1.40;;;20.90;90.10;;;;;;6155737;23;20055;-84
2023/08/14 10:25:15;;;;;;;2.80;1.55;;;20.90;90.10;;;;;;6157313;23;20005;-84
2023/08/14 10:27:42;;;;;;;2.15;1.40;;;20.90;90.00;;;;;;6155535;23;20008;-84
2023/08/14 10:30:09;;;;;;;1.77;1.20;;;20.90;90.00;;;;;;6155634;23;20010;-84
2023/08/14 10:32:36;;;;;;;2.35;1.40;;;21.00;90.00;;;;;;6157420;23;20001;-84
2023/08/14 10:35:02;;;;;;;2.30;1.30;;;20.90;90.00;;;;;;6157028;23;20416;-84
2023/08/14 10:37:40;;;;;;;1.63;1.20;;;21.00;90.00;;;;;;6157156;23;19998;-84
2023/08/14 10:40:20;;;;;;;2.75;1.48;;;21.00;90.00;;;;;;6155402;23;20001;-83
2023/08/14 10:42:54;;;;;;;2.00;1.20;;;20.90;90.00;;;;;;6154303;23;20321;-83
2023/08/14 10:45:27;;;;;;;3.13;1.50;;;21.00;90.00;;;;;;6154919;23;20001;-84
2023/08/14 10:47:59;;;;;;;2.20;1.33;;;21.00;90.00;;;;;;6155025;23;19993;-83
2023/08/14 10:50:25;;;;;;;;;;;21.00;90.00;;;;;;6157156;23;20073;-83
2023/08/14 10:52:52;;;;;;;2.10;1.30;;;21.00;90.00;;;;;;6154835;23;19943;-84
2023/08/14 10:55:36;;;;;;;1.92;1.20;;;21.00;90.10;;;;;;6154485;23;20005;-83
2023/08/14 10:58:21;;;;;;;2.08;1.27;;;21.00;90.00;;;;;;6154576;23;20048;-83
2023/08/14 11:00:50;;;;;;;2.67;1.30;;;21.00;90.00;;;;;;6154489;23;20100;-84
2023/08/14 11:03:16;;;;;;;2.35;1.30;;;21.10;89.90;;;;;;6156004;23;19998;-83
2023/08/14 11:05:41;;;;;;;1.75;1.10;;;21.10;89.70;;;;;;6156089;23;20404;-83
2023/08/14 11:08:11;;;;;;;2.30;1.50;;;21.10;89.70;;;;;;6154868;23;20088;-83
2023/08/14 11:10:37;;;;;;;2.15;1.45;;;21.10;89.60;;;;;;6156030;23;20002;-83
2023/08/14 11:13:06;;;;;;;2.00;1.38;;;21.10;89.60;;;;;;6160812;23;20001;-85
2023/08/14 11:15:33;;;;;;;1.48;1.27;;;21.10;89.50;;;;;;6161792;23;20088;-84
2023/08/14 11:17:59;;;;;;;2.15;1.35;;;21.10;90.00;;;;;;6162013;23;20305;-84
2023/08/14 11:20:32;;;;;;;2.53;1.42;;;21.20;89.50;;;;;;6161087;23;20002;-84
2023/08/14 11:22:59;;;;;;;2.08;1.30;;;21.10;89.50;;;;;;6162028;23;20076;-84
2023/08/14 11:25:25;;;;;;;2.17;1.17;;;21.10;89.60;;;;;;6160366;23;20061;-84
2023/08/14 11:27:52;;;;;;;2.03;1.20;;;21.10;89.80;;;;;;6162023;23;19994;-84
2023/08/14 11:30:24;;;;;;;2.15;1.30;;;21.10;89.70;;;;;;6160600;23;20008;-84
2023/08/14 11:32:50;;;;;;;2.30;1.30;;;21.00;89.80;;;;;;6162208;23;20440;-84
2023/08/14 11:35:17;;;;;;;2.58;1.50;;;21.10;89.90;;;;;;6161714;23;20002;-85
2023/08/14 11:37:44;;;;;;;2.22;1.30;;;21.00;90.00;;;;;;6163678;23;20158;-85
2023/08/14 11:40:11;;;;;;;2.60;1.50;;;21.00;90.00;;;;;;6162025;23;20364;-84
2023/08/14 11:42:39;;;;;;;1.88;1.20;;;21.00;90.00;;;;;;6161740;23;20470;-84
2023/08/14 11:45:06;;;;;;;2.72;1.60;;;21.00;90.10;;;;;;6161199;23;20494;-84
2023/08/14 11:47:34;;;;;;;2.33;1.20;;;21.00;90.10;;;;;;6161021;23;19994;-84
2023/08/14 11:50:00;;;;;;;2.08;1.40;;;21.00;90.10;;;;;;6160470;23;20001;-84
2023/08/14 11:52:26;;;;;;;2.17;1.40;;;21.00;90.10;;;;;;6160238;23;20001;-84
2023/08/14 11:54:56;;;;;;;2.83;1.67;;;21.00;90.10;;;;;;6159187;23;20031;-84
2023/08/14 11:57:26;;;;;;;2.60;1.40;;;21.00;90.20;;;;;;6160210;23;20012;-84
2023/08/14 11:59:56;;;;;;;2.20;1.48;;;21.00;90.20;;;;;;6160529;23;20005;-85
2023/08/14 12:02:26;;;;;;;2.65;1.40;;;21.00;90.20;;;;;;6159350;23;19997;-84
2023/08/14 12:04:52;;;;;;;2.13;1.30;;;21.00;90.20;;;;;;6158663;23;19998;-84
2023/08/14 12:07:19;;;;;;;2.40;1.40;;;21.00;90.20;;;;;;6159496;23;19997;-84
2023/08/14 12:09:45;;;;;;;3.60;1.63;;;21.00;90.20;;;;;;6158559;23;20012;-84
2023/08/14 12:12:12;;;;;;;2.78;1.30;;;21.00;90.20;;;;;;6160278;23;20076;-84
2023/08/14 12:14:46;;;;;;;2.30;1.38;;;21.00;90.20;;;;;;6157964;23;20368;-84
2023/08/14 12:17:12;;;;;;;1.52;1.10;;;21.00;90.20;;;;;;6157945;23;20076;-84
2023/08/14 12:19:38;;;;;;;2.55;1.30;;;21.00;90.20;;;;;;6158084;23;20431;-84
2023/08/14 12:22:05;;;;;;;1.95;1.40;;;21.00;90.20;;;;;;6159470;23;20004;-84
2023/08/14 12:24:42;;;;;;;2.05;1.20;;;20.90;90.20;;;;;;6156752;23;19997;-84
2023/08/14 12:27:34;;;;;;;2.13;1.20;;;20.90;90.20;;;;;;6156859;23;20339;-84
2023/08/14 12:30:00;;;;;;;1.38;1.13;;;21.00;90.20;;;;;;6150263;23;20375;-84
2023/08/14 12:32:26;;;;;;;2.65;1.40;;;21.00;90.20;;;;;;6156188;23;20001;-84
2023/08/14 12:34:52;;;;;;;1.83;1.20;;;20.90;90.10;;;;;;6156210;23;20002;-84
2023/08/14 12:37:18;;;;;;;2.33;1.20;;;21.00;90.10;;;;;;6158217;23;20044;-84
2023/08/14 12:39:47;;;;;;;2.42;1.33;;;21.00;90.10;;;;;;6156117;23;20001;-84
2023/08/14 12:42:13;;;;;;;1.77;1.20;;;21.00;90.10;;;;;;6156196;23;20520;-84
2023/08/14 12:44:39;;;;;;;2.15;1.27;;;21.00;90.10;;;;;;6155449;23;20025;-84
2023/08/14 12:47:04;;;;;;;2.75;1.50;;;21.00;90.10;;;;;;6156051;23;19998;-84
2023/08/14 12:49:33;;;;;;;2.53;1.50;;;21.00;90.20;;;;;;6157469;23;19998;-84
2023/08/14 12:52:01;;;;;;;1.67;1.20;;;20.90;90.10;;;;;;6155542;23;20033;-84
2023/08/14 12:54:26;;;;;;;2.13;1.50;;;20.90;90.20;;;;;;6155428;23;20467;-84
2023/08/14 12:56:52;;;;;;;1.90;1.30;;;20.90;90.20;;;;;;6155368;23;20005;-84
2023/08/14 12:59:18;;;;;;;1.70;1.08;;;20.90;90.30;;;;;;6154497;23;20011;-84
2023/08/14 13:01:44;;;;;;;1.52;1.17;;;20.80;90.40;;;;;;6157398;23;20017;-83
2023/08/14 13:04:10;;;;;;;2.08;1.30;;;20.80;90.40;;;;;;6155055;23;20325;-84
2023/08/14 13:06:36;;;;;;;1.73;1.10;;;20.80;90.50;;;;;;6156870;23;20067;-84
2023/08/14 13:09:02;;;;;;;1.92;1.25;;;20.80;90.50;;;;;;6156602;23;20005;-84
2023/08/14 13:11:28;;;;;;;2.70;1.40;;;20.80;90.60;;;;;;6154734;23;20078;-84
2023/08/14 13:13:54;;;;;;;2.38;1.20;;;20.80;90.50;;;;;;6156077;23;19994;-84
2023/08/14 13:16:19;;;;;;;2.47;1.30;;;20.80;90.50;;;;;;6156186;23;20324;-84
2023/08/14 13:18:45;;;;;;;1.98;1.20;;;20.70;90.50;;;;;;6154849;23;20364;-83
2023/08/14 13:21:11;;;;;;;1.90;1.27;;;20.70;90.50;;;;;;6155788;23;20076;-83
2023/08/14 13:23:37;;;;;;;4.20;1.50;;;20.70;90.60;;;;;;6153989;23;20084;-83
2023/08/14 13:26:02;;;;;;;6.53;1.50;;;20.70;90.60;;;;;;6153896;23;19989;-83
2023/08/14 13:28:28;;;;;;;5.20;1.70;;;20.80;90.60;;;;;;6153923;23;19998;-83
2023/08/14 13:30:54;;;;;;;3.75;1.30;;;20.70;90.60;;;;;;6154099;23;20002;-83
2023/08/14 13:33:20;;;;;;;4.88;1.77;;;20.70;90.60;;;;;;6153795;23;20436;-84
2023/08/14 13:35:45;;;;;;;6.85;1.80;;;20.70;90.60;;;;;;6153776;23;20008;-83
2023/08/14 13:38:11;;;;;;;6.00;1.50;;;20.70;90.70;;;;;;6153747;23;20051;-83
2023/08/14 13:40:37;;;;;;;2.45;1.38;;;20.70;90.70;;;;;;6153537;23;20009;-83
2023/08/14 13:43:03;;;;;;;3.67;1.30;;;20.70;90.70;;;;;;6153584;23;20076;-83
2023/08/14 13:45:30;;;;;;;3.85;1.50;;;20.70;90.70;;;;;;6153282;23;20455;-83
2023/08/14 13:47:56;;;;;;;3.55;1.50;;;20.70;90.70;;;;;;6153471;23;20048;-83